Time;durP1;ratioP1;P1;durP2;ratioP2;P2;SDS_P1;SDS_P2;PMS_P1;PMS_P2;Temp;Humidity;BMP_temperature;BMP_pressure;BME280_temperature;BME280_humidity;BME280_pressure;Samples;Min_cycle;Max_cycle;Signal;HPM_P1;HPM_P2
2020/12/05 00:01:56;;;;;;;10.58;4.33;;;21.10;67.20;;;;;;610591;90;3001898;-83
2020/12/05 00:04:24;;;;;;;14.87;5.33;;;21.10;67.10;;;;;;606149;90;3003180;-85
2020/12/05 00:06:51;;;;;;;12.75;4.00;;;21.10;67.10;;;;;;600069;91;3001986;-84
2020/12/05 00:09:19;;;;;;;10.93;4.67;;;21.10;67.00;;;;;;606272;90;3002032;-83
2020/12/05 00:11:47;;;;;;;11.83;4.37;;;21.10;67.10;;;;;;600613;92;3001983;-83
2020/12/05 00:14:14;;;;;;;10.90;4.17;;;21.10;67.00;;;;;;597179;92;3002031;-83
2020/12/05 00:16:42;;;;;;;11.83;4.83;;;21.10;67.00;;;;;;608738;90;3002164;-84
2020/12/05 00:19:11;;;;;;;15.00;4.75;;;21.10;67.00;;;;;;610424;90;3002939;-83
2020/12/05 00:21:38;;;;;;;10.58;4.15;;;21.10;66.90;;;;;;595036;92;3002088;-84
2020/12/05 00:24:06;;;;;;;9.23;4.17;;;21.00;66.80;;;;;;601131;92;3001896;-84
2020/12/05 00:26:33;;;;;;;13.08;5.03;;;21.10;66.90;;;;;;603415;90;3002446;-83
2020/12/05 00:29:01;;;;;;;12.65;4.05;;;21.10;66.90;;;;;;604626;90;3002010;-82
2020/12/05 00:31:29;;;;;;;11.00;4.42;;;21.10;67.00;;;;;;605896;90;3001899;-84
2020/12/05 00:33:56;;;;;;;11.50;4.53;;;21.00;66.90;;;;;;612008;90;3002028;-83
2020/12/05 00:36:24;;;;;;;8.88;4.25;;;21.00;66.90;;;;;;607119;90;3001976;-83
2020/12/05 00:38:54;;;;;;;12.75;4.33;;;21.00;66.90;;;;;;606689;91;3002018;-83
2020/12/05 00:41:20;;;;;;;11.08;4.62;;;21.00;66.90;;;;;;603799;92;3003180;-83
2020/12/05 00:43:48;;;;;;;8.43;3.95;;;21.00;66.90;;;;;;608270;91;3002313;-83
2020/12/05 00:46:16;;;;;;;13.53;4.25;;;21.00;66.90;;;;;;609543;90;3002002;-83
2020/12/05 00:48:43;;;;;;;13.25;4.80;;;21.00;66.90;;;;;;605331;92;3002316;-82
2020/12/05 00:51:13;;;;;;;12.47;4.25;;;21.00;66.90;;;;;;607111;91;3001911;-83
2020/12/05 00:53:41;;;;;;;10.10;4.25;;;21.00;66.80;;;;;;610187;90;3002392;-83
2020/12/05 00:56:08;;;;;;;11.05;4.53;;;21.00;66.80;;;;;;606251;90;3001983;-84
2020/12/05 00:58:36;;;;;;;12.15;4.60;;;21.00;66.80;;;;;;605979;91;3003418;-83
2020/12/05 01:01:05;;;;;;;9.08;4.03;;;21.00;66.70;;;;;;609376;90;3002404;-83
2020/12/05 01:03:33;;;;;;;13.45;4.20;;;21.00;66.70;;;;;;607010;91;3003223;-83
2020/12/05 01:06:00;;;;;;;9.58;3.65;;;21.00;66.70;;;;;;606139;92;3001882;-82
2020/12/05 01:08:28;;;;;;;7.40;3.83;;;21.00;66.80;;;;;;609754;89;3002430;-85
2020/12/05 01:10:56;;;;;;;11.48;3.67;;;21.00;66.80;;;;;;607829;90;3003169;-84
2020/12/05 01:13:23;;;;;;;10.75;4.20;;;21.00;66.80;;;;;;608372;90;3001951;-83
2020/12/05 01:15:51;;;;;;;9.25;4.00;;;21.00;66.80;;;;;;609195;91;3002122;-83
2020/12/05 01:18:18;;;;;;;9.15;3.77;;;20.90;66.80;;;;;;606592;91;3002131;-85
2020/12/05 01:20:46;;;;;;;9.63;4.08;;;20.90;66.70;;;;;;606322;91;3002425;-84
2020/12/05 01:23:13;;;;;;;8.85;3.45;;;20.90;66.70;;;;;;608353;91;3002038;-83
2020/12/05 01:25:41;;;;;;;11.05;3.75;;;20.90;66.80;;;;;;608004;91;3002029;-85
2020/12/05 01:28:09;;;;;;;7.97;3.47;;;20.90;66.80;;;;;;608522;91;3002070;-83
2020/12/05 01:30:36;;;;;;;7.03;3.55;;;20.90;66.80;;;;;;606764;88;3002256;-81
2020/12/05 01:33:04;;;;;;;8.25;3.92;;;20.90;66.80;;;;;;601999;91;3003480;-82
2020/12/05 01:35:32;;;;;;;8.30;4.30;;;20.90;66.70;;;;;;603445;90;3001934;-84
2020/12/05 01:37:59;;;;;;;7.30;2.85;;;20.90;66.70;;;;;;605404;92;3002385;-84
2020/12/05 01:40:27;;;;;;;8.18;3.75;;;20.90;66.70;;;;;;606143;90;3002053;-84
2020/12/05 01:42:54;;;;;;;8.03;4.05;;;20.90;66.70;;;;;;605185;91;3001934;-81
2020/12/05 01:45:22;;;;;;;5.80;3.37;;;20.90;66.70;;;;;;604224;91;3001973;-84
2020/12/05 01:47:50;;;;;;;7.08;3.75;;;20.90;66.50;;;;;;601607;91;3001986;-83
2020/12/05 01:50:18;;;;;;;8.48;3.47;;;20.90;66.70;;;;;;603633;91;3001878;-84
2020/12/05 01:52:46;;;;;;;10.78;3.62;;;20.90;66.70;;;;;;605617;90;3001979;-84
2020/12/05 01:55:14;;;;;;;6.03;3.58;;;20.90;66.70;;;;;;610558;91;3002873;-84
2020/12/05 01:57:42;;;;;;;8.38;3.60;;;20.90;66.70;;;;;;610744;91;3002038;-84
2020/12/05 02:00:09;;;;;;;12.93;3.42;;;20.90;66.80;;;;;;612091;91;3002157;-84
2020/12/05 02:02:38;;;;;;;6.85;3.10;;;20.90;66.70;;;;;;638842;92;3001994;-31
2020/12/05 02:05:20;;;;;;;7.70;3.25;;;20.90;66.70;;;;;;613710;88;3001983;-28
2020/12/05 02:07:57;;;;;;;9.73;3.20;;;20.90;66.60;;;;;;608388;90;3001984;-26
2020/12/05 02:10:30;;;;;;;9.63;3.25;;;20.90;66.70;;;;;;602485;91;3003338;-34
2020/12/05 02:13:06;;;;;;;8.70;3.75;;;20.90;66.60;;;;;;607637;91;3002337;-28
2020/12/05 02:15:37;;;;;;;10.78;3.45;;;20.90;66.60;;;;;;607678;91;3002000;-36
2020/12/05 02:18:07;;;;;;;7.87;3.30;;;20.80;66.60;;;;;;605288;90;3002817;-34
2020/12/05 02:20:37;;;;;;;6.92;3.10;;;20.80;66.80;;;;;;608872;91;3002337;-26
2020/12/05 02:23:16;;;;;;;6.90;3.12;;;20.90;66.70;;;;;;607214;91;3001621;-33
2020/12/05 02:25:45;;;;;;;8.93;3.33;;;20.80;66.50;;;;;;607021;91;3002423;-31
2020/12/05 02:28:16;;;;;;;7.03;3.15;;;20.80;66.50;;;;;;609072;91;3002048;-28
2020/12/05 02:30:43;;;;;;;8.20;3.10;;;20.80;66.50;;;;;;603878;91;3002253;-28
2020/12/05 02:33:11;;;;;;;7.00;2.72;;;20.80;66.50;;;;;;604112;91;3002458;-27
2020/12/05 02:35:39;;;;;;;5.55;2.85;;;20.80;66.50;;;;;;607730;90;3002950;-28
2020/12/05 02:38:09;;;;;;;5.35;2.80;;;20.80;66.50;;;;;;595052;91;3001922;-30
2020/12/05 02:40:37;;;;;;;8.05;3.12;;;20.80;66.60;;;;;;612066;89;3002164;-28
2020/12/05 02:43:06;;;;;;;8.33;2.98;;;20.80;66.60;;;;;;607221;91;3002040;-38
2020/12/05 02:45:34;;;;;;;7.95;3.17;;;20.80;66.60;;;;;;602518;91;3001930;-27
2020/12/05 02:48:02;;;;;;;7.87;3.15;;;20.80;66.70;;;;;;612366;90;3001980;-31
2020/12/05 02:50:30;;;;;;;5.53;2.87;;;20.80;66.70;;;;;;594190;92;3001962;-31
2020/12/05 02:52:57;;;;;;;6.70;3.10;;;20.80;66.70;;;;;;608354;90;3002497;-33
2020/12/05 02:55:25;;;;;;;8.55;3.52;;;20.80;66.70;;;;;;597912;91;3002001;-33
2020/12/05 02:57:52;;;;;;;8.78;2.65;;;20.80;66.60;;;;;;605325;90;3002265;-27
2020/12/05 03:00:20;;;;;;;6.50;3.37;;;20.80;66.60;;;;;;609116;91;3001929;-35
2020/12/05 03:02:48;;;;;;;6.10;3.12;;;20.80;66.50;;;;;;600766;91;3001997;-34
2020/12/05 03:05:16;;;;;;;4.50;2.58;;;20.90;66.50;;;;;;605445;90;3001919;-28
2020/12/05 03:07:43;;;;;;;5.15;2.87;;;20.90;66.60;;;;;;610823;89;3002785;-30
2020/12/05 03:10:11;;;;;;;5.45;2.77;;;20.90;67.10;;;;;;604738;91;3003080;-29
2020/12/05 03:12:39;;;;;;;5.58;2.92;;;20.90;66.50;;;;;;613695;90;3002631;-27
2020/12/05 03:15:06;;;;;;;6.53;2.98;;;20.90;66.50;;;;;;610753;89;3002339;-31
2020/12/05 03:17:34;;;;;;;5.53;3.02;;;20.90;66.50;;;;;;609350;90;3002005;-27
2020/12/05 03:20:02;;;;;;;8.00;2.27;;;20.90;66.50;;;;;;608061;91;3002383;-35
2020/12/05 03:22:29;;;;;;;7.37;2.40;;;20.90;66.40;;;;;;611553;90;3002580;-31
2020/12/05 03:24:57;;;;;;;4.95;2.45;;;20.90;66.40;;;;;;607689;90;3002321;-26
2020/12/05 03:27:25;;;;;;;6.53;2.62;;;20.90;66.40;;;;;;601785;90;3001984;-26
2020/12/05 03:29:52;;;;;;;4.95;2.47;;;20.90;66.40;;;;;;606501;90;3002353;-26
2020/12/05 03:32:24;;;;;;;5.10;2.90;;;20.90;66.50;;;;;;607620;91;3002734;-30
2020/12/05 03:34:50;;;;;;;3.67;2.55;;;20.90;66.50;;;;;;599264;92;3002329;-31
2020/12/05 03:37:19;;;;;;;5.20;2.37;;;20.90;66.50;;;;;;601287;89;3002539;-26
2020/12/05 03:39:46;;;;;;;7.30;3.30;;;20.90;66.40;;;;;;607873;91;3002195;-29
2020/12/05 03:42:14;;;;;;;6.87;2.67;;;21.00;66.40;;;;;;598659;92;3002187;-31
2020/12/05 03:44:42;;;;;;;4.00;2.60;;;21.00;66.40;;;;;;610016;89;3001930;-27
2020/12/05 03:47:09;;;;;;;6.78;3.25;;;21.00;66.30;;;;;;609009;90;3002262;-27
2020/12/05 03:49:37;;;;;;;5.33;2.90;;;21.00;66.40;;;;;;608119;89;3001970;-30
2020/12/05 03:52:06;;;;;;;6.78;3.02;;;21.00;66.30;;;;;;585603;93;3002323;-34
2020/12/05 03:54:33;;;;;;;6.12;2.47;;;21.00;66.30;;;;;;600668;90;3001680;-30
2020/12/05 03:57:01;;;;;;;5.60;2.67;;;21.00;66.10;;;;;;596617;92;3002320;-28
2020/12/05 03:59:29;;;;;;;7.50;3.27;;;21.00;66.20;;;;;;603183;90;3002015;-30
2020/12/05 04:01:56;;;;;;;5.30;2.87;;;21.10;66.30;;;;;;616397;89;3001996;-28
2020/12/05 04:04:24;;;;;;;5.08;2.62;;;21.10;66.30;;;;;;607398;91;3001935;-29
2020/12/05 04:06:51;;;;;;;5.25;2.70;;;21.00;66.20;;;;;;607596;91;3002333;-31
2020/12/05 04:09:19;;;;;;;3.90;2.30;;;21.00;66.70;;;;;;610245;91;3002201;-27
2020/12/05 04:11:47;;;;;;;6.55;2.75;;;21.10;66.80;;;;;;607047;91;3001963;-31
2020/12/05 04:14:14;;;;;;;5.83;2.70;;;21.00;66.10;;;;;;610684;90;3001920;-34
2020/12/05 04:16:42;;;;;;;4.97;2.77;;;21.10;66.20;;;;;;609105;89;3002859;-27
2020/12/05 04:19:09;;;;;;;4.70;2.20;;;21.10;66.20;;;;;;602195;91;3002803;-27
2020/12/05 04:21:37;;;;;;;5.60;2.33;;;21.10;66.10;;;;;;608963;90;3003704;-31
2020/12/05 04:24:04;;;;;;;4.85;2.52;;;21.10;66.20;;;;;;612406;89;3001958;-33
2020/12/05 04:26:32;;;;;;;4.45;2.45;;;21.10;66.10;;;;;;609904;90;3001874;-28
2020/12/05 04:28:59;;;;;;;5.62;2.62;;;21.10;66.10;;;;;;608534;90;3002414;-29
2020/12/05 04:31:27;;;;;;;4.35;2.62;;;21.10;66.10;;;;;;607740;91;3002578;-30
2020/12/05 04:33:55;;;;;;;5.20;2.35;;;21.10;66.10;;;;;;607723;91;3002351;-28
2020/12/05 04:36:22;;;;;;;4.33;2.42;;;21.10;66.10;;;;;;610098;91;3002005;-33
2020/12/05 04:38:50;;;;;;;4.05;2.30;;;21.10;66.10;;;;;;608033;92;3002428;-33
2020/12/05 04:41:20;;;;;;;6.70;3.08;;;21.10;66.10;;;;;;606440;91;3002408;-31
2020/12/05 04:43:48;;;;;;;4.47;2.20;;;21.10;66.00;;;;;;606999;91;3004122;-27
2020/12/05 04:46:17;;;;;;;6.33;2.70;;;21.10;65.80;;;;;;608205;90;3001959;-27
2020/12/05 04:48:46;;;;;;;4.78;2.75;;;21.10;65.90;;;;;;608449;91;3002027;-36
2020/12/05 04:51:19;;;;;;;5.67;2.58;;;21.10;65.80;;;;;;610017;89;3001969;-28
2020/12/05 04:53:48;;;;;;;3.58;2.17;;;21.10;65.90;;;;;;612920;91;3002145;-27
2020/12/05 04:56:17;;;;;;;3.77;2.22;;;21.10;65.80;;;;;;607357;91;3002206;-27
2020/12/05 04:58:49;;;;;;;4.50;2.42;;;21.10;65.80;;;;;;597320;89;3002501;-27
2020/12/05 05:01:19;;;;;;;3.27;2.65;;;21.10;65.80;;;;;;611168;91;3002086;-29
2020/12/05 05:03:47;;;;;;;4.28;2.17;;;21.10;65.80;;;;;;610088;91;3002355;-29
2020/12/05 05:06:21;;;;;;;5.28;2.65;;;21.20;65.80;;;;;;604563;91;3001949;-27
2020/12/05 05:08:49;;;;;;;3.37;2.17;;;21.10;65.80;;;;;;604978;91;3002923;-26
2020/12/05 05:11:18;;;;;;;3.83;2.30;;;21.20;65.90;;;;;;604440;91;3002035;-31
2020/12/05 05:13:56;;;;;;;4.25;2.12;;;21.20;65.80;;;;;;608089;91;3003125;-31
2020/12/05 05:16:27;;;;;;;3.52;2.10;;;21.20;65.80;;;;;;609644;90;3001932;-27
2020/12/05 05:18:53;;;;;;;3.80;2.22;;;21.10;65.70;;;;;;603626;91;3001989;-37
2020/12/05 05:21:38;;;;;;;3.98;2.17;;;21.10;65.80;;;;;;601504;91;3002103;-29
2020/12/05 05:24:13;;;;;;;3.70;2.22;;;21.20;65.80;;;;;;598927;92;3001613;-28
2020/12/05 05:26:41;;;;;;;4.28;2.42;;;21.10;65.70;;;;;;598394;92;3002283;-27
2020/12/05 05:29:37;;;;;;;3.47;2.27;;;21.20;65.80;;;;;;609250;89;3002330;-30
2020/12/05 05:32:15;;;;;;;4.42;2.08;;;21.20;65.70;;;;;;608213;90;3001968;-30
2020/12/05 05:34:40;;;;;;;4.33;2.02;;;21.20;66.40;;;;;;607952;91;3002209;-29
2020/12/05 05:37:15;;;;;;;4.60;2.37;;;21.20;65.70;;;;;;605030;91;3001996;-32
2020/12/05 05:39:49;;;;;;;3.37;1.98;;;21.20;65.70;;;;;;610235;90;3002130;-35
2020/12/05 05:42:33;;;;;;;5.30;2.50;;;21.20;65.70;;;;;;604364;91;3002012;-30
2020/12/05 05:45:20;;;;;;;5.72;2.42;;;21.20;65.70;;;;;;607523;90;3002200;-28
2020/12/05 05:47:51;;;;;;;2.87;1.90;;;21.20;65.70;;;;;;608726;91;3002587;-30
2020/12/05 05:50:34;;;;;;;4.78;2.50;;;21.20;65.70;;;;;;608273;91;3002478;-33
2020/12/05 05:53:07;;;;;;;4.33;2.70;;;21.10;65.60;;;;;;611003;91;3002343;-30
2020/12/05 05:55:41;;;;;;;;;;;21.20;65.60;;;;;;607853;91;3002305;-31
2020/12/05 05:58:09;;;;;;;3.90;2.42;;;21.20;65.70;;;;;;609998;91;3002733;-31
2020/12/05 06:00:40;;;;;;;5.45;2.52;;;21.10;65.60;;;;;;606962;91;3003276;-30
2020/12/05 06:03:16;;;;;;;4.53;2.22;;;21.10;65.60;;;;;;608023;90;3001938;-28
2020/12/05 06:05:49;;;;;;;4.78;2.37;;;21.20;65.70;;;;;;608616;91;3002023;-28
2020/12/05 06:08:20;;;;;;;4.58;2.37;;;21.20;65.70;;;;;;609999;91;3001995;-31
2020/12/05 06:10:50;;;;;;;3.98;2.45;;;21.20;65.60;;;;;;601630;90;3002002;-27
2020/12/05 06:13:19;;;;;;;2.75;1.90;;;21.20;65.60;;;;;;608749;91;3001922;-32
2020/12/05 06:15:48;;;;;;;2.40;2.10;;;21.20;65.90;;;;;;611718;91;3002349;-27
2020/12/05 06:18:15;;;;;;;2.42;1.75;;;21.20;66.20;;;;;;601855;91;3002631;-31
2020/12/05 06:20:47;;;;;;;3.45;2.25;;;21.20;65.70;;;;;;592459;93;3001967;-31
2020/12/05 06:23:20;;;;;;;3.17;2.20;;;21.20;65.60;;;;;;609041;91;3001570;-33
2020/12/05 06:25:53;;;;;;;3.15;1.98;;;21.20;65.60;;;;;;605844;91;3003477;-28
2020/12/05 06:28:23;;;;;;;4.03;2.30;;;21.20;66.20;;;;;;606599;91;3001882;-32
2020/12/05 06:30:52;;;;;;;3.62;2.17;;;21.20;65.60;;;;;;605937;90;3001909;-33
2020/12/05 06:33:42;;;;;;;2.62;1.90;;;21.20;65.60;;;;;;611172;91;3001937;-31
2020/12/05 06:36:31;;;;;;;3.65;2.10;;;21.20;66.10;;;;;;606179;90;3001974;-29
2020/12/05 06:39:10;;;;;;;2.70;2.15;;;21.20;65.60;;;;;;608533;91;3002685;-30
2020/12/05 06:41:40;;;;;;;4.53;2.45;;;21.20;65.60;;;;;;608305;91;3001956;-29
2020/12/05 06:44:16;;;;;;;4.33;2.58;;;21.20;65.60;;;;;;606736;91;3002895;-31
2020/12/05 06:46:52;;;;;;;4.67;2.37;;;21.20;65.50;;;;;;609502;90;3001928;-31
2020/12/05 06:49:41;;;;;;;3.42;1.90;;;21.20;65.60;;;;;;608385;91;3002002;-29
2020/12/05 06:52:31;;;;;;;3.85;2.15;;;21.20;65.70;;;;;;604410;92;3001993;-28
2020/12/05 06:55:11;;;;;;;5.20;2.58;;;21.20;65.60;;;;;;613698;91;3001995;-33
2020/12/05 06:57:41;;;;;;;5.47;2.12;;;21.20;65.60;;;;;;610823;91;3002452;-27
2020/12/05 07:00:15;;;;;;;4.33;2.05;;;21.20;65.60;;;;;;609780;91;3001953;-33
2020/12/05 07:02:56;;;;;;;3.37;2.02;;;21.20;65.50;;;;;;608614;91;3001998;-31
2020/12/05 07:05:26;;;;;;;3.83;2.17;;;21.20;65.60;;;;;;607820;91;3002263;-33
2020/12/05 07:07:58;;;;;;;2.95;2.12;;;21.20;65.60;;;;;;609100;91;3003500;-32
2020/12/05 07:10:59;;;;;;;3.02;2.17;;;21.20;65.60;;;;;;605848;90;3002314;-31
2020/12/05 07:13:30;;;;;;;3.83;2.05;;;21.20;65.50;;;;;;609880;90;3002861;-29
2020/12/05 07:16:25;;;;;;;3.30;2.12;;;21.20;65.50;;;;;;606569;90;3002938;-32
2020/12/05 07:18:58;;;;;;;3.75;2.35;;;21.20;65.50;;;;;;597348;92;3001904;-28
2020/12/05 07:21:26;;;;;;;;;;;21.20;65.50;;;;;;606680;90;3002584;-38
2020/12/05 07:23:54;;;;;;;3.80;2.20;;;21.20;65.50;;;;;;615519;91;3002369;-30
2020/12/05 07:26:22;;;;;;;1.98;1.67;;;21.20;65.40;;;;;;608591;91;3002029;-36
2020/12/05 07:28:52;;;;;;;2.85;2.30;;;21.20;65.50;;;;;;612354;90;3003058;-27
2020/12/05 07:31:20;;;;;;;3.65;2.08;;;21.20;65.50;;;;;;604405;90;3001964;-28
2020/12/05 07:33:48;;;;;;;3.22;2.27;;;21.20;65.50;;;;;;609561;91;3002384;-29
2020/12/05 07:36:17;;;;;;;3.35;2.40;;;21.20;65.40;;;;;;604489;91;3002231;-35
2020/12/05 07:38:47;;;;;;;2.60;2.08;;;21.20;65.40;;;;;;605388;91;3001935;-30
2020/12/05 07:41:21;;;;;;;3.50;2.10;;;21.20;65.40;;;;;;610624;90;3002114;-29
2020/12/05 07:43:51;;;;;;;3.95;2.27;;;21.20;65.50;;;;;;609759;91;3002127;-28
2020/12/05 07:46:18;;;;;;;2.27;2.08;;;21.20;65.50;;;;;;604241;91;3002239;-31
2020/12/05 07:48:46;;;;;;;3.77;2.20;;;21.20;65.50;;;;;;609054;91;3002747;-30
2020/12/05 07:51:18;;;;;;;2.35;2.05;;;21.20;65.60;;;;;;607289;91;3003387;-33
2020/12/05 07:53:49;;;;;;;3.80;2.02;;;21.20;65.60;;;;;;608697;91;3002015;-33
2020/12/05 07:56:19;;;;;;;2.75;1.87;;;21.20;65.50;;;;;;603193;91;3001932;-33
2020/12/05 07:58:50;;;;;;;4.28;2.55;;;21.20;65.50;;;;;;611457;91;3002342;-33
2020/12/05 08:01:26;;;;;;;3.65;2.30;;;21.20;65.50;;;;;;605577;92;3001937;-27
2020/12/05 08:04:13;;;;;;;3.87;2.10;;;21.20;65.40;;;;;;606839;89;3002182;-30
2020/12/05 08:06:47;;;;;;;2.90;2.12;;;21.20;65.50;;;;;;604100;90;3002572;-30
2020/12/05 08:09:18;;;;;;;3.50;2.02;;;21.20;65.40;;;;;;609084;91;3002088;-28
2020/12/05 08:11:48;;;;;;;2.58;2.00;;;21.20;65.40;;;;;;609682;90;3001954;-27
2020/12/05 08:14:17;;;;;;;3.58;2.22;;;21.20;65.50;;;;;;604735;90;3003094;-34
2020/12/05 08:16:45;;;;;;;3.70;2.33;;;21.20;65.40;;;;;;608965;91;3002384;-29
2020/12/05 08:19:13;;;;;;;3.12;2.12;;;21.20;65.40;;;;;;605516;92;3002263;-28
2020/12/05 08:21:41;;;;;;;3.22;2.27;;;21.20;65.40;;;;;;610180;90;3002043;-31
2020/12/05 08:24:13;;;;;;;3.62;2.20;;;21.20;65.40;;;;;;603886;91;3002171;-26
2020/12/05 08:26:41;;;;;;;2.85;1.87;;;21.20;65.40;;;;;;606428;91;3002102;-30
2020/12/05 08:29:10;;;;;;;3.27;2.30;;;21.20;65.90;;;;;;604316;90;3001966;-32
2020/12/05 08:31:42;;;;;;;4.15;2.77;;;21.20;65.30;;;;;;602581;92;3001928;-32
2020/12/05 08:34:10;;;;;;;3.85;2.20;;;21.20;65.30;;;;;;609910;91;3001631;-28
2020/12/05 08:36:45;;;;;;;2.58;1.82;;;21.20;65.30;;;;;;607913;91;3002359;-31
2020/12/05 08:39:15;;;;;;;2.33;1.80;;;21.30;65.30;;;;;;601203;92;3002691;-27
2020/12/05 08:41:45;;;;;;;3.08;2.30;;;21.30;65.30;;;;;;610804;89;3001617;-28
2020/12/05 08:44:15;;;;;;;3.05;2.37;;;21.30;65.30;;;;;;609119;90;3002325;-30
2020/12/05 08:46:43;;;;;;;2.85;2.22;;;21.30;65.30;;;;;;611151;91;3002013;-29
2020/12/05 08:49:16;;;;;;;2.72;2.22;;;21.30;65.30;;;;;;606207;91;3002455;-27
2020/12/05 08:51:50;;;;;;;2.98;2.00;;;21.30;65.20;;;;;;603224;92;3002266;-28
2020/12/05 08:54:18;;;;;;;3.87;2.15;;;21.30;65.30;;;;;;603670;91;3003804;-26
2020/12/05 08:56:45;;;;;;;4.00;2.50;;;21.30;65.30;;;;;;610245;91;3001970;-26
2020/12/05 08:59:15;;;;;;;3.17;2.25;;;21.30;65.30;;;;;;604753;92;3001903;-31
2020/12/05 09:01:44;;;;;;;2.87;2.08;;;21.30;65.40;;;;;;605664;90;3001965;-33
2020/12/05 09:04:13;;;;;;;2.47;1.85;;;21.30;65.40;;;;;;599536;92;3001925;-29
2020/12/05 09:06:41;;;;;;;3.27;2.20;;;21.20;65.30;;;;;;601544;92;3002414;-34
2020/12/05 09:09:08;;;;;;;2.67;2.08;;;21.30;65.40;;;;;;605833;91;3002100;-28
2020/12/05 09:11:36;;;;;;;3.17;2.17;;;21.30;65.40;;;;;;602519;91;3002804;-29
2020/12/05 09:14:03;;;;;;;2.25;2.05;;;21.30;65.40;;;;;;600872;91;3002816;-34
2020/12/05 09:16:35;;;;;;;3.00;2.00;;;21.30;65.40;;;;;;606095;90;3001977;-28
2020/12/05 09:19:03;;;;;;;3.10;2.12;;;21.20;65.30;;;;;;600091;91;3001951;-31
2020/12/05 09:21:36;;;;;;;2.62;2.40;;;21.20;65.30;;;;;;604697;91;3002024;-29
2020/12/05 09:24:06;;;;;;;3.10;2.30;;;21.20;65.30;;;;;;606050;91;3002043;-27
2020/12/05 09:26:37;;;;;;;2.87;2.15;;;21.30;65.40;;;;;;606655;90;3002371;-27
2020/12/05 09:29:04;;;;;;;3.02;2.17;;;21.30;65.40;;;;;;606155;91;3002464;-32
2020/12/05 09:31:32;;;;;;;2.10;1.90;;;21.30;65.40;;;;;;602484;91;3001993;-28
2020/12/05 09:34:00;;;;;;;3.27;2.42;;;21.30;65.40;;;;;;604226;89;3001917;-37
2020/12/05 09:36:27;;;;;;;2.12;1.87;;;21.30;65.40;;;;;;606560;91;3002455;-29
2020/12/05 09:38:55;;;;;;;1.90;1.80;;;21.20;65.40;;;;;;593848;92;3002018;-30
2020/12/05 09:41:22;;;;;;;2.42;2.20;;;21.30;65.40;;;;;;602906;91;3002314;-33
2020/12/05 09:43:50;;;;;;;2.90;2.45;;;21.30;65.40;;;;;;604410;90;3002019;-32
2020/12/05 09:46:17;;;;;;;3.08;2.40;;;21.30;65.40;;;;;;601952;91;3003540;-32
2020/12/05 09:48:45;;;;;;;2.92;2.33;;;21.30;65.40;;;;;;598232;92;3002771;-28
2020/12/05 09:51:13;;;;;;;2.50;2.30;;;21.30;65.40;;;;;;604549;90;3001950;-31
2020/12/05 09:53:40;;;;;;;2.35;1.82;;;21.30;65.40;;;;;;603617;91;3002568;-33
2020/12/05 09:56:08;;;;;;;2.47;2.00;;;21.30;65.50;;;;;;607836;91;3001996;-33
2020/12/05 09:58:35;;;;;;;2.35;2.00;;;21.30;65.50;;;;;;606328;91;3002244;-31
2020/12/05 10:01:03;;;;;;;2.83;2.37;;;21.30;65.40;;;;;;607707;90;3002392;-27
2020/12/05 10:03:31;;;;;;;2.40;1.80;;;21.30;65.50;;;;;;605803;91;3003136;-28
2020/12/05 10:05:58;;;;;;;4.58;2.17;;;21.30;65.50;;;;;;607303;90;3001998;-34
2020/12/05 10:08:26;;;;;;;3.10;2.10;;;21.30;65.50;;;;;;608059;90;3001604;-32
2020/12/05 10:10:53;;;;;;;2.33;1.90;;;21.30;65.60;;;;;;606824;89;3002682;-30
2020/12/05 10:13:21;;;;;;;1.95;1.77;;;21.30;65.40;;;;;;605203;90;3002977;-31
2020/12/05 10:15:49;;;;;;;2.80;2.20;;;21.30;65.50;;;;;;608842;89;3003774;-34
2020/12/05 10:18:16;;;;;;;2.50;1.92;;;21.30;65.60;;;;;;607034;90;3002009;-34
2020/12/05 10:20:44;;;;;;;2.52;1.72;;;21.30;65.50;;;;;;604648;90;3002505;-37
2020/12/05 10:23:11;;;;;;;3.55;2.10;;;21.30;66.10;;;;;;604820;91;3001634;-36
2020/12/05 10:25:40;;;;;;;3.27;2.52;;;21.30;65.40;;;;;;608695;89;3001959;-33
2020/12/05 10:28:07;;;;;;;3.45;2.40;;;21.30;65.40;;;;;;605028;90;3002005;-27
2020/12/05 10:30:35;;;;;;;2.83;2.08;;;21.30;65.40;;;;;;605220;91;3002012;-33
2020/12/05 10:33:03;;;;;;;4.30;2.08;;;21.30;65.40;;;;;;605980;91;3001920;-29
2020/12/05 10:35:30;;;;;;;4.75;2.55;;;21.40;65.60;;;;;;605262;91;3002049;-31
2020/12/05 10:37:58;;;;;;;5.37;2.35;;;21.40;65.80;;;;;;604875;90;3002109;-30
2020/12/05 10:40:26;;;;;;;7.22;2.55;;;21.50;65.90;;;;;;603689;90;3002456;-31
2020/12/05 10:42:53;;;;;;;8.85;2.80;;;21.50;65.70;;;;;;605583;91;3002013;-32
2020/12/05 10:45:21;;;;;;;5.75;2.22;;;21.50;66.30;;;;;;605919;91;3003127;-30
2020/12/05 10:47:49;;;;;;;5.40;2.70;;;21.60;66.30;;;;;;604632;91;3001965;-35
2020/12/05 10:50:17;;;;;;;5.97;2.70;;;21.60;66.30;;;;;;605340;91;3002037;-30
2020/12/05 10:52:45;;;;;;;3.87;2.47;;;21.60;66.20;;;;;;607281;91;3001644;-28
2020/12/05 10:55:12;;;;;;;3.40;2.52;;;21.70;66.20;;;;;;603524;91;3001671;-29
2020/12/05 10:57:40;;;;;;;2.85;2.20;;;21.70;66.30;;;;;;606079;91;3002044;-30
2020/12/05 11:00:07;;;;;;;4.42;2.92;;;21.80;66.30;;;;;;607208;89;3002953;-26
2020/12/05 11:02:35;;;;;;;3.52;2.12;;;21.80;66.30;;;;;;604375;92;3002426;-27
2020/12/05 11:05:03;;;;;;;5.28;2.52;;;21.80;66.10;;;;;;603350;91;3003664;-37
2020/12/05 11:07:30;;;;;;;4.25;2.58;;;21.90;66.20;;;;;;607155;91;3002025;-32
2020/12/05 11:09:58;;;;;;;4.05;2.35;;;21.90;66.30;;;;;;600809;92;3002006;-33
2020/12/05 11:12:26;;;;;;;2.65;2.02;;;21.90;65.90;;;;;;605254;90;3002931;-30
2020/12/05 11:14:53;;;;;;;4.33;2.35;;;;;;;;;;602347;91;3001775;-29
2020/12/05 11:17:20;;;;;;;7.22;2.67;;;;;;;;;;600963;92;3001936;-36
2020/12/05 11:19:48;;;;;;;4.37;2.27;;;21.90;66.50;;;;;;606641;91;3002038;-30
2020/12/05 11:22:15;;;;;;;5.05;2.45;;;22.00;66.60;;;;;;607318;91;3002045;-32
2020/12/05 11:24:43;;;;;;;10.32;2.40;;;22.00;66.30;;;;;;605803;92;3002302;-27
2020/12/05 11:27:10;;;;;;;6.97;2.83;;;22.10;66.60;;;;;;608992;90;3002002;-29
2020/12/05 11:29:38;;;;;;;5.05;2.20;;;22.10;66.50;;;;;;610923;90;3001937;-31
2020/12/05 11:32:06;;;;;;;4.75;2.40;;;22.20;66.90;;;;;;603701;91;3003089;-32
2020/12/05 11:34:33;;;;;;;4.75;2.98;;;22.20;66.80;;;;;;608521;91;3002033;-28
2020/12/05 11:37:01;;;;;;;3.62;2.22;;;22.20;67.10;;;;;;606257;90;3002196;-27
2020/12/05 11:39:29;;;;;;;3.58;2.40;;;22.20;67.00;;;;;;611665;90;3001925;-28
2020/12/05 11:41:56;;;;;;;4.40;2.70;;;22.20;66.80;;;;;;606867;91;3002454;-33
2020/12/05 11:44:24;;;;;;;3.92;2.50;;;22.30;67.00;;;;;;609310;90;3002017;-30
2020/12/05 11:46:52;;;;;;;4.30;2.00;;;22.30;67.00;;;;;;608539;90;3002092;-29
2020/12/05 11:49:20;;;;;;;5.10;2.10;;;22.30;67.20;;;;;;607989;91;3001930;-29
2020/12/05 11:51:49;;;;;;;3.87;2.42;;;22.30;67.60;;;;;;607588;91;3001987;-29
2020/12/05 11:54:16;;;;;;;4.70;2.02;;;22.40;67.10;;;;;;603881;92;3002443;-28
2020/12/05 11:56:44;;;;;;;4.58;2.08;;;22.40;66.80;;;;;;605378;91;3001995;-28
2020/12/05 11:59:12;;;;;;;4.10;2.12;;;22.40;67.20;;;;;;602147;91;3002043;-29
2020/12/05 12:01:43;;;;;;;4.83;2.45;;;22.40;67.00;;;;;;590325;92;3002054;-32
2020/12/05 12:04:10;;;;;;;5.70;2.98;;;22.40;66.80;;;;;;602757;90;3002828;-33
2020/12/05 12:06:38;;;;;;;5.03;2.42;;;22.50;66.80;;;;;;607073;90;3002485;-34
2020/12/05 12:09:07;;;;;;;6.97;2.25;;;22.40;66.40;;;;;;600375;92;3002880;-28
2020/12/05 12:11:35;;;;;;;3.70;2.22;;;22.40;68.30;;;;;;590255;93;3002291;-31
2020/12/05 12:14:02;;;;;;;3.95;2.58;;;22.40;68.60;;;;;;597959;91;3002041;-32
2020/12/05 12:16:30;;;;;;;4.25;2.30;;;22.50;69.30;;;;;;595800;92;3002406;-27
2020/12/05 12:18:57;;;;;;;5.37;2.17;;;22.50;68.80;;;;;;595904;92;3001992;-28
2020/12/05 12:21:26;;;;;;;3.60;2.27;;;22.50;68.60;;;;;;601220;90;3002317;-30
2020/12/05 12:23:54;;;;;;;4.62;2.02;;;22.40;45.40;;;;;;607482;91;3001932;-32
2020/12/05 12:26:30;;;;;;;2.77;1.92;;;22.40;45.90;;;;;;607321;91;3001979;-29
2020/12/05 12:28:57;;;;;;;3.95;2.17;;;22.40;45.60;;;;;;605865;90;3002322;-30
2020/12/05 12:31:25;;;;;;;2.77;2.00;;;22.40;45.50;;;;;;604174;91;3002058;-29
2020/12/05 12:33:53;;;;;;;2.52;1.77;;;22.40;45.50;;;;;;598575;92;3002223;-34
2020/12/05 12:36:21;;;;;;;3.58;2.20;;;22.40;45.50;;;;;;600629;91;3002106;-31
2020/12/05 12:38:49;;;;;;;2.95;2.02;;;22.40;45.60;;;;;;605327;91;3002053;-30
2020/12/05 12:41:21;;;;;;;5.95;2.22;;;22.40;45.60;;;;;;603052;91;3001975;-28
2020/12/05 12:43:51;;;;;;;5.22;2.25;;;22.30;45.60;;;;;;606515;91;3001961;-32
2020/12/05 12:46:22;;;;;;;3.22;2.12;;;22.40;45.60;;;;;;604903;91;3001702;-28
2020/12/05 12:48:48;;;;;;;4.37;2.40;;;22.30;45.60;;;;;;599111;91;3002381;-33
2020/12/05 12:51:15;;;;;;;5.22;2.10;;;22.30;45.60;;;;;;603959;91;3002376;-34